createdAt,value
2022-09-09T00:00:56.544Z,0.30
2022-09-09T00:03:28.411Z,0.33
2022-09-09T00:06:15.771Z,0.40
2022-09-09T00:08:53.548Z,0.50
2022-09-09T00:11:31.667Z,0.63
2022-09-09T00:14:05.490Z,0.65
2022-09-09T00:16:40.404Z,0.40
2022-09-09T00:19:17.504Z,0.50
2022-09-09T00:21:59.508Z,0.30
2022-09-09T00:24:36.332Z,0.30
2022-09-09T00:27:16.392Z,0.60
2022-09-09T00:29:51.544Z,0.43
2022-09-09T00:32:26.513Z,0.30
2022-09-09T00:34:57.399Z,0.20
2022-09-09T00:37:29.537Z,0.30
2022-09-09T00:40:02.413Z,0.20
2022-09-09T00:42:47.103Z,0.47
2022-09-09T00:45:53.319Z,0.08
2022-09-09T00:48:31.212Z,0.20
2022-09-09T00:51:05.167Z,0.20
2022-09-09T00:53:42.957Z,0.20
2022-09-09T00:56:19.670Z,0.10
2022-09-09T00:59:10.258Z,0.32
2022-09-09T01:01:40.788Z,0.10
2022-09-09T01:04:17.036Z,0.20
2022-09-09T01:06:53.128Z,0.22
2022-09-09T01:09:29.794Z,0.20
2022-09-09T01:12:04.841Z,0.20
2022-09-09T01:14:45.591Z,0.10
2022-09-09T01:17:20.244Z,0.20
2022-09-09T01:20:05.291Z,0.20
2022-09-09T01:22:47.589Z,0.30
2022-09-09T01:25:31.143Z,0.25
2022-09-09T01:28:19.924Z,0.13
2022-09-09T01:30:50.935Z,0.10
2022-09-09T01:33:35.769Z,0.10
2022-09-09T01:36:12.171Z,0.20
2022-09-09T01:38:51.440Z,0.20
2022-09-09T01:41:20.228Z,0.25
2022-09-09T01:43:57.025Z,0.17
2022-09-09T01:46:25.982Z,0.20
2022-09-09T01:48:55.178Z,0.10
2022-09-09T01:51:23.847Z,0.10
2022-09-09T01:53:52.268Z,0.10
2022-09-09T01:56:45.594Z,0.20
2022-09-09T01:59:49.296Z,0.20
2022-09-09T02:02:20.690Z,0.10
2022-09-09T02:05:38.626Z,0.20
2022-09-09T02:08:17.187Z,0.20
2022-09-09T02:11:09.407Z,0.10
2022-09-09T02:13:49.162Z,0.20
2022-09-09T02:16:25.918Z,0.28
2022-09-09T02:19:00.093Z,0.10
2022-09-09T02:21:37.996Z,0.10
2022-09-09T02:24:10.098Z,0.25
2022-09-09T02:26:50.266Z,0.15
2022-09-09T02:29:24.590Z,0.10
2022-09-09T02:31:56.186Z,0.10
2022-09-09T02:34:30.920Z,0.32
2022-09-09T02:37:05.187Z,0.10
2022-09-09T02:39:33.819Z,0.17
2022-09-09T02:42:02.388Z,0.10
2022-09-09T02:44:33.531Z,0.10
2022-09-09T02:47:29.194Z,0.17
2022-09-09T02:50:09.641Z,0.17
2022-09-09T02:52:46.269Z,0.20
2022-09-09T02:55:20.203Z,0.20
2022-09-09T02:57:53.495Z,0.20
2022-09-09T03:00:26.398Z,0.10
2022-09-09T03:02:57.817Z,0.10
2022-09-09T03:05:26.298Z,0.17
2022-09-09T03:07:54.718Z,0.13
2022-09-09T03:10:24.794Z,0.10
2022-09-09T03:12:52.659Z,0.10
2022-09-09T03:15:20.888Z,0.22
2022-09-09T03:17:50.673Z,0.15
2022-09-09T03:20:29.029Z,0.10
2022-09-09T03:23:01.195Z,0.13
2022-09-09T03:25:29.764Z,0.15
2022-09-09T03:27:58.620Z,0.20
2022-09-09T03:30:28.960Z,0.10
2022-09-09T03:32:58.447Z,0.10
2022-09-09T03:35:37.881Z,0.17
2022-09-09T03:38:05.736Z,0.22
2022-09-09T03:40:38.255Z,0.20
2022-09-09T03:43:06.280Z,0.28
2022-09-09T03:45:37.994Z,0.30
2022-09-09T03:48:07.261Z,0.17
2022-09-09T03:50:36.428Z,0.17
2022-09-09T03:53:04.700Z,0.15
2022-09-09T03:55:32.967Z,0.10
2022-09-09T03:58:04.115Z,0.17
2022-09-09T04:00:32.117Z,0.15
2022-09-09T04:03:05.065Z,0.10
2022-09-09T04:05:34.974Z,0.15
2022-09-09T04:08:04.290Z,0.20
2022-09-09T04:10:32.532Z,0.15
2022-09-09T04:13:04.010Z,0.20
2022-09-09T04:15:32.214Z,0.20
2022-09-09T04:18:00.251Z,0.13
2022-09-09T04:20:28.422Z,0.15
2022-09-09T04:22:58.951Z,0.20
2022-09-09T04:25:28.310Z,0.20
2022-09-09T04:27:57.232Z,0.20
2022-09-09T04:30:25.725Z,0.32
2022-09-09T04:32:58.707Z,0.22
2022-09-09T04:35:28.177Z,0.10
2022-09-09T04:37:56.987Z,0.20
2022-09-09T04:40:25.836Z,0.10
2022-09-09T04:42:55.449Z,0.10
2022-09-09T04:45:23.562Z,0.10
2022-09-09T04:47:52.075Z,0.10
2022-09-09T04:50:22.206Z,0.17
2022-09-09T04:53:00.032Z,0.10
2022-09-09T04:55:28.307Z,0.30
2022-09-09T04:57:58.449Z,0.10
2022-09-09T05:00:37.454Z,0.20
2022-09-09T05:03:09.856Z,0.30
2022-09-09T05:05:41.443Z,0.28
2022-09-09T05:08:11.541Z,0.10
2022-09-09T05:10:43.196Z,0.20
2022-09-09T05:13:13.667Z,0.20
2022-09-09T05:15:44.111Z,0.30
2022-09-09T05:18:12.040Z,0.30
2022-09-09T05:20:43.549Z,0.35
2022-09-09T05:23:15.253Z,0.25
2022-09-09T05:25:43.582Z,0.30
2022-09-09T05:28:12.852Z,0.20
2022-09-09T05:30:44.011Z,0.30
2022-09-09T05:33:13.732Z,0.40
2022-09-09T05:35:41.936Z,0.30
2022-09-09T05:38:09.798Z,0.15
2022-09-09T05:40:37.616Z,0.10
2022-09-09T05:43:08.091Z,0.40
2022-09-09T05:45:40.073Z,0.30
2022-09-09T05:48:08.841Z,0.38
2022-09-09T05:50:36.776Z,0.20
2022-09-09T05:53:05.027Z,0.13
2022-09-09T05:55:36.391Z,0.20
2022-09-09T05:58:06.374Z,0.20
2022-09-09T06:00:34.636Z,0.30
2022-09-09T06:03:04.564Z,0.20
2022-09-09T06:05:34.674Z,0.20
2022-09-09T06:08:03.023Z,0.32
2022-09-09T06:10:31.017Z,0.20
2022-09-09T06:12:59.852Z,0.20
2022-09-09T06:15:43.941Z,0.15
2022-09-09T06:18:13.829Z,0.10
2022-09-09T06:21:02.826Z,0.10
2022-09-09T06:23:34.089Z,0.13
2022-09-09T06:26:07.686Z,0.30
2022-09-09T06:28:37.431Z,0.22
2022-09-09T06:31:10.048Z,0.25
2022-09-09T06:33:46.848Z,0.50
2022-09-09T06:36:16.802Z,0.10
2022-09-09T06:38:51.211Z,0.20
2022-09-09T06:41:22.923Z,0.13
2022-09-09T06:43:57.666Z,0.20
2022-09-09T06:46:34.542Z,0.10
2022-09-09T06:49:11.211Z,0.50
2022-09-09T06:51:43.832Z,0.55
2022-09-09T06:54:14.385Z,0.28
2022-09-09T06:56:47.193Z,0.30
2022-09-09T06:59:36.779Z,0.20
2022-09-09T07:02:06.102Z,0.50
2022-09-09T07:04:35.746Z,0.40
2022-09-09T07:07:06.540Z,0.40
2022-09-09T07:09:36.025Z,0.30
2022-09-09T07:12:06.816Z,0.20
2022-09-09T07:14:39.306Z,0.35
2022-09-09T07:17:11.967Z,0.30
2022-09-09T07:19:44.179Z,0.20
2022-09-09T07:22:19.693Z,0.50
2022-09-09T07:24:52.574Z,0.10
2022-09-09T07:27:26.114Z,0.20
2022-09-09T07:30:25.548Z,0.38
2022-09-09T07:33:01.065Z,0.30
2022-09-09T07:35:37.942Z,0.20
2022-09-09T07:38:07.721Z,0.13
2022-09-09T07:40:39.571Z,0.20
2022-09-09T07:43:07.924Z,0.10
2022-09-09T07:45:37.050Z,0.45
2022-09-09T07:48:05.665Z,0.38
2022-09-09T07:50:38.042Z,0.30
2022-09-09T07:53:07.464Z,0.20
2022-09-09T07:55:35.811Z,0.32
2022-09-09T07:58:06.205Z,0.20
2022-09-09T08:00:40.435Z,0.20
2022-09-09T08:03:10.862Z,0.20
2022-09-09T08:06:03.605Z,0.22
2022-09-09T08:08:32.521Z,0.45
2022-09-09T08:11:06.090Z,0.20
2022-09-09T08:13:34.283Z,0.20
2022-09-09T08:16:13.666Z,0.10
2022-09-09T08:18:43.352Z,0.32
2022-09-09T08:21:15.693Z,0.20
2022-09-09T08:23:46.728Z,0.20
2022-09-09T08:26:23.221Z,0.20
2022-09-09T08:28:53.304Z,0.45
2022-09-09T08:31:39.334Z,0.20
2022-09-09T08:34:09.342Z,0.30
2022-09-09T08:36:43.339Z,0.10
2022-09-09T08:39:13.149Z,0.30
2022-09-09T08:42:15.789Z,0.63
2022-09-09T08:45:04.587Z,0.25
2022-09-09T08:47:40.335Z,0.30
2022-09-09T08:50:29.457Z,0.20
2022-09-09T08:53:08.326Z,0.43
2022-09-09T08:55:46.746Z,0.32
2022-09-09T08:58:17.786Z,0.50
2022-09-09T09:01:21.597Z,0.30
2022-09-09T09:04:09.355Z,0.45
2022-09-09T09:06:52.160Z,0.40
2022-09-09T09:09:36.651Z,0.22
2022-09-09T09:12:21.809Z,0.30
2022-09-09T09:14:51.716Z,0.30
2022-09-09T09:17:23.982Z,0.40
2022-09-09T09:19:52.761Z,0.40
2022-09-09T09:22:32.597Z,0.30
2022-09-09T09:25:14.083Z,0.20
2022-09-09T09:28:01.880Z,0.40
2022-09-09T09:30:40.718Z,0.30
2022-09-09T09:33:22.145Z,0.30
2022-09-09T09:35:51.668Z,0.50
2022-09-09T09:41:31.291Z,0.35
2022-09-09T09:44:01.591Z,0.38
2022-09-09T09:46:31.719Z,0.28
2022-09-09T09:49:16.929Z,0.20
2022-09-09T09:51:48.950Z,0.40
2022-09-09T09:54:24.868Z,0.10
2022-09-09T09:56:58.931Z,0.25
2022-09-09T09:59:39.779Z,0.20
2022-09-09T10:02:21.375Z,0.40
2022-09-09T10:05:07.748Z,0.32
2022-09-09T10:07:39.817Z,0.30
2022-09-09T10:10:41.013Z,0.32
2022-09-09T10:13:20.605Z,0.30
2022-09-09T10:16:05.091Z,0.20
2022-09-09T10:18:55.785Z,0.30
2022-09-09T10:21:45.867Z,0.50
2022-09-09T10:25:00.264Z,0.40
2022-09-09T10:30:28.971Z,0.57
2022-09-09T10:33:07.612Z,0.60
2022-09-09T10:36:03.915Z,0.40
2022-09-09T10:38:42.056Z,0.22
2022-09-09T10:41:18.615Z,0.35
2022-09-09T10:44:17.413Z,0.20
2022-09-09T10:47:27.876Z,0.25
2022-09-09T10:50:20.310Z,0.20
2022-09-09T10:53:02.278Z,0.60
2022-09-09T10:55:40.661Z,0.30
2022-09-09T10:58:14.332Z,0.38
2022-09-09T11:00:48.969Z,0.38
2022-09-09T11:03:24.638Z,0.30
2022-09-09T11:05:57.797Z,0.20
2022-09-09T11:08:28.246Z,0.30
2022-09-09T11:11:04.638Z,0.30
2022-09-09T11:13:41.908Z,0.25
2022-09-09T11:16:30.974Z,0.32
2022-09-09T11:19:25.782Z,0.25
2022-09-09T11:22:02.109Z,0.30
2022-09-09T11:24:37.409Z,0.30
2022-09-09T11:27:13.922Z,0.52
2022-09-09T11:30:54.763Z,0.28
2022-09-09T11:33:50.160Z,0.38
2022-09-09T11:36:45.253Z,0.20
2022-09-09T11:39:51.784Z,0.45
2022-09-09T11:42:27.003Z,0.47
2022-09-09T11:44:55.885Z,0.50
2022-09-09T11:47:30.599Z,0.28
2022-09-09T11:50:10.892Z,0.30
2022-09-09T11:52:48.369Z,0.10
2022-09-09T11:55:33.875Z,0.20
2022-09-09T11:58:06.613Z,0.38
2022-09-09T12:00:39.040Z,0.25
2022-09-09T12:03:36.885Z,0.20
2022-09-09T12:06:15.449Z,0.10
2022-09-09T12:08:50.047Z,0.10
2022-09-09T12:11:27.567Z,0.28
2022-09-09T12:13:56.747Z,0.20
2022-09-09T12:16:39.555Z,0.10
2022-09-09T12:19:20.942Z,0.28
2022-09-09T12:22:00.594Z,0.32
2022-09-09T12:25:01.313Z,0.10
2022-09-09T12:27:38.020Z,0.10
2022-09-09T12:30:12.924Z,0.20
2022-09-09T12:32:41.059Z,0.20
2022-09-09T12:35:23.715Z,0.10
2022-09-09T12:37:54.886Z,0.20
2022-09-09T12:40:36.209Z,0.15
2022-09-09T12:43:22.274Z,0.22
2022-09-09T12:46:04.817Z,0.30
2022-09-09T12:48:43.562Z,0.25
2022-09-09T12:51:21.552Z,0.10
2022-09-09T12:54:02.632Z,0.10
2022-09-09T12:56:34.501Z,0.20
2022-09-09T12:59:02.750Z,0.20
2022-09-09T13:01:32.723Z,0.20
2022-09-09T13:04:01.465Z,0.30
2022-09-09T13:06:31.206Z,0.20
2022-09-09T13:09:00.880Z,0.20
2022-09-09T13:11:39.253Z,0.30
2022-09-09T13:14:08.270Z,0.10
2022-09-09T13:16:58.103Z,0.32
2022-09-09T13:19:29.881Z,0.30
2022-09-09T13:22:23.767Z,0.10
2022-09-09T13:25:03.951Z,0.32
2022-09-09T13:27:41.141Z,0.20
2022-09-09T13:30:30.402Z,0.10
2022-09-09T13:33:24.518Z,0.30
2022-09-09T13:35:56.425Z,0.20
2022-09-09T13:38:29.980Z,0.20
2022-09-09T13:41:02.456Z,0.15
2022-09-09T13:43:38.686Z,0.25
2022-09-09T13:46:44.531Z,0.25
2022-09-09T13:49:25.867Z,0.10
2022-09-09T13:52:05.054Z,0.10
2022-09-09T13:54:39.599Z,0.10
2022-09-09T13:57:19.242Z,0.10
2022-09-09T14:00:04.773Z,0.25
2022-09-09T14:02:33.679Z,0.20
2022-09-09T14:05:08.416Z,0.20
2022-09-09T14:07:41.230Z,0.20
2022-09-09T14:10:09.914Z,0.10
2022-09-09T14:12:38.235Z,0.30
2022-09-09T14:15:22.804Z,0.30
2022-09-09T14:17:56.719Z,0.20
2022-09-09T14:23:03.712Z,0.20
2022-09-09T14:25:44.820Z,0.32
2022-09-09T14:28:14.436Z,0.25
2022-09-09T14:30:50.265Z,0.10
2022-09-09T14:33:18.951Z,0.30
2022-09-09T14:35:46.904Z,0.20
2022-09-09T14:38:18.919Z,0.15
2022-09-09T14:40:47.803Z,0.10
2022-09-09T14:43:18.116Z,0.10
2022-09-09T14:45:46.156Z,0.20
2022-09-09T14:48:34.677Z,0.40
2022-09-09T14:51:08.224Z,0.20
2022-09-09T14:56:27.865Z,0.38
2022-09-09T14:58:59.479Z,0.22
2022-09-09T15:01:28.768Z,0.20
2022-09-09T15:04:06.977Z,0.30
2022-09-09T15:06:42.367Z,0.17
2022-09-09T15:09:10.897Z,0.20
2022-09-09T15:11:39.543Z,0.20
2022-09-09T15:14:08.629Z,0.15
2022-09-09T15:16:37.344Z,0.20
2022-09-09T15:19:06.782Z,0.10
2022-09-09T15:21:37.326Z,0.10
2022-09-09T15:24:08.253Z,0.20
2022-09-09T15:26:39.405Z,0.10
2022-09-09T15:29:08.780Z,0.28
2022-09-09T15:31:39.396Z,0.30
2022-09-09T15:34:09.719Z,0.10
2022-09-09T15:36:39.097Z,0.30
2022-09-09T15:39:10.731Z,0.22
2022-09-09T15:41:45.495Z,0.20
2022-09-09T15:44:14.102Z,0.20
2022-09-09T15:46:43.497Z,0.20
2022-09-09T15:49:14.783Z,0.20
2022-09-09T15:51:45.062Z,0.10
2022-09-09T15:54:15.183Z,0.30
2022-09-09T15:56:47.447Z,0.10
2022-09-09T15:59:15.924Z,0.20
2022-09-09T16:01:46.571Z,0.20
2022-09-09T16:04:21.215Z,0.30
2022-09-09T16:06:59.452Z,0.10
2022-09-09T16:09:30.709Z,0.15
2022-09-09T16:12:01.715Z,0.50
2022-09-09T16:14:30.015Z,0.82
2022-09-09T16:16:57.880Z,0.25
2022-09-09T16:19:27.044Z,0.70
2022-09-09T16:22:05.237Z,0.28
2022-09-09T16:24:33.116Z,0.30
2022-09-09T16:27:15.238Z,0.38
2022-09-09T16:29:46.361Z,0.30
2022-09-09T16:32:21.719Z,0.20
2022-09-09T16:34:53.969Z,0.30
2022-09-09T16:37:21.755Z,0.22
2022-09-09T16:39:55.836Z,0.20
2022-09-09T16:42:24.514Z,0.20
2022-09-09T16:44:54.808Z,0.35
2022-09-09T16:47:22.821Z,0.20
2022-09-09T16:49:57.831Z,0.13
2022-09-09T16:52:25.722Z,0.20
2022-09-09T16:55:00.950Z,0.13
2022-09-09T16:57:31.460Z,0.20
2022-09-09T17:00:02.499Z,0.45
2022-09-09T17:02:33.412Z,0.40
2022-09-09T17:05:02.676Z,0.30
2022-09-09T17:07:33.512Z,0.20
2022-09-09T17:10:01.336Z,0.30
2022-09-09T17:12:31.479Z,0.20
2022-09-09T17:15:06.467Z,0.25
2022-09-09T17:17:48.212Z,0.25
2022-09-09T17:20:18.092Z,0.25
2022-09-09T17:22:46.046Z,0.30
2022-09-09T17:25:14.047Z,0.20
2022-09-09T17:27:41.905Z,0.77
2022-09-09T17:30:13.778Z,0.70
2022-09-09T17:32:42.675Z,0.80
2022-09-09T17:35:15.858Z,0.50
2022-09-09T17:37:45.830Z,0.30
2022-09-09T17:40:14.601Z,0.32
2022-09-09T17:42:43.243Z,0.63
2022-09-09T17:45:14.217Z,0.77
2022-09-09T17:47:51.195Z,0.60
2022-09-09T17:50:19.372Z,0.90
2022-09-09T17:52:48.511Z,0.80
2022-09-09T17:55:19.517Z,0.45
2022-09-09T17:57:47.256Z,0.30
2022-09-09T18:00:15.771Z,0.30
2022-09-09T18:02:45.749Z,0.57
2022-09-09T18:05:16.244Z,0.50
2022-09-09T18:07:44.037Z,0.40
2022-09-09T18:10:38.332Z,0.50
2022-09-09T18:13:12.576Z,0.40
2022-09-09T18:15:49.376Z,0.40
2022-09-09T18:18:17.594Z,0.30
2022-09-09T18:20:45.605Z,0.20
2022-09-09T18:23:13.540Z,0.30
2022-09-09T18:25:43.220Z,0.30
2022-09-09T18:28:11.725Z,0.28
2022-09-09T18:30:41.255Z,0.22
2022-09-09T18:33:09.314Z,0.40
2022-09-09T18:35:37.421Z,0.22
2022-09-09T18:38:05.573Z,0.30
2022-09-09T18:40:33.648Z,0.35
2022-09-09T18:43:05.652Z,0.43
2022-09-09T18:45:38.139Z,0.45
2022-09-09T18:48:05.948Z,0.40
2022-09-09T18:50:37.052Z,0.82
2022-09-09T18:53:05.443Z,1.00
2022-09-09T18:55:37.726Z,0.65
2022-09-09T18:58:06.939Z,0.85
2022-09-09T19:00:34.841Z,0.75
2022-09-09T19:03:04.941Z,0.70
2022-09-09T19:05:35.781Z,0.50
2022-09-09T19:08:04.144Z,0.55
2022-09-09T19:10:32.080Z,0.35
2022-09-09T19:13:05.062Z,0.30
2022-09-09T19:15:37.480Z,0.30
2022-09-09T19:18:05.972Z,0.35
2022-09-09T19:20:33.835Z,0.35
2022-09-09T19:23:02.106Z,0.20
2022-09-09T19:25:32.067Z,0.45
2022-09-09T19:27:59.963Z,0.35
2022-09-09T19:30:27.861Z,0.30
2022-09-09T19:32:58.988Z,0.10
2022-09-09T19:35:28.898Z,0.20
2022-09-09T19:37:59.291Z,0.20
2022-09-09T19:40:30.354Z,0.15
2022-09-09T19:43:00.406Z,0.20
2022-09-09T19:45:28.478Z,0.10
2022-09-09T19:47:58.360Z,0.30
2022-09-09T19:50:26.316Z,0.25
2022-09-09T19:52:58.070Z,0.20
2022-09-09T19:55:28.893Z,0.10
2022-09-09T19:57:56.910Z,0.40
2022-09-09T20:00:24.691Z,0.10
2022-09-09T20:03:18.150Z,0.28
2022-09-09T20:05:50.362Z,0.10
2022-09-09T20:08:18.454Z,0.17
2022-09-09T20:10:53.730Z,0.30
2022-09-09T20:13:21.963Z,0.30
2022-09-09T20:15:58.126Z,0.43
2022-09-09T20:18:29.138Z,0.10
2022-09-09T20:21:04.662Z,0.30
2022-09-09T20:23:36.111Z,0.10
2022-09-09T20:26:06.639Z,0.20
2022-09-09T20:28:35.863Z,0.30
2022-09-09T20:31:07.727Z,0.40
2022-09-09T20:33:37.659Z,0.20
2022-09-09T20:36:11.909Z,0.22
2022-09-09T20:38:43.477Z,0.20
2022-09-09T20:41:14.420Z,0.47
2022-09-09T20:43:49.990Z,0.20
2022-09-09T20:46:18.985Z,0.50
2022-09-09T20:48:50.336Z,0.43
2022-09-09T20:51:19.793Z,0.25
2022-09-09T20:53:48.175Z,0.75
2022-09-09T20:56:17.364Z,0.22
2022-09-09T20:58:45.287Z,0.43
2022-09-09T21:01:16.584Z,0.30
2022-09-09T21:03:45.218Z,1.00
2022-09-09T21:06:17.486Z,0.85
2022-09-09T21:08:46.427Z,1.13
2022-09-09T21:11:15.290Z,1.17
2022-09-09T21:13:43.236Z,1.10
2022-09-09T21:16:14.955Z,0.90
2022-09-09T21:18:46.672Z,0.82
2022-09-09T21:21:20.352Z,0.77
2022-09-09T21:23:48.750Z,0.80
2022-09-09T21:26:19.560Z,0.45
2022-09-09T21:28:47.676Z,0.38
2022-09-09T21:31:20.146Z,0.68
2022-09-09T21:33:48.534Z,0.55
2022-09-09T21:36:16.660Z,0.73
2022-09-09T21:38:45.886Z,0.55
2022-09-09T21:41:16.488Z,0.30
2022-09-09T21:43:46.711Z,0.60
2022-09-09T21:46:17.245Z,0.70
2022-09-09T21:48:45.727Z,0.65
2022-09-09T21:51:15.925Z,0.43
2022-09-09T21:53:45.391Z,0.40
2022-09-09T21:56:42.033Z,0.43
2022-09-09T21:59:15.582Z,0.40
2022-09-09T22:01:43.556Z,0.28
2022-09-09T22:04:11.456Z,0.20
2022-09-09T22:06:39.338Z,0.30
2022-09-09T22:09:19.608Z,0.25
2022-09-09T22:11:58.920Z,1.60
2022-09-09T22:14:29.531Z,1.77
2022-09-09T22:16:57.373Z,1.20
2022-09-09T22:19:25.706Z,1.20
2022-09-09T22:21:59.799Z,1.17
2022-09-09T22:26:56.635Z,0.50
2022-09-09T22:29:24.482Z,0.63
2022-09-09T22:31:57.381Z,0.63
2022-09-09T22:34:30.570Z,0.43
2022-09-09T22:36:58.466Z,0.30
2022-09-09T22:39:26.324Z,0.38
2022-09-09T22:42:01.825Z,0.52
2022-09-09T22:44:29.878Z,0.30
2022-09-09T22:47:03.002Z,0.40
2022-09-09T22:49:31.327Z,0.43
2022-09-09T22:51:59.330Z,0.32
2022-09-09T22:54:29.856Z,0.30
2022-09-09T22:56:57.647Z,0.25
2022-09-09T22:59:26.846Z,0.38
2022-09-09T23:01:54.751Z,0.40
2022-09-09T23:04:22.808Z,0.30
2022-09-09T23:07:00.897Z,0.30
2022-09-09T23:09:28.896Z,0.20
2022-09-09T23:11:59.752Z,0.22
2022-09-09T23:14:29.084Z,0.40
2022-09-09T23:16:59.949Z,0.20
2022-09-09T23:19:28.748Z,0.10
2022-09-09T23:21:58.268Z,0.15
2022-09-09T23:24:29.070Z,0.40
2022-09-09T23:26:56.922Z,0.45
2022-09-09T23:29:25.047Z,0.30
2022-09-09T23:31:54.327Z,0.70
2022-09-09T23:34:22.567Z,0.40
2022-09-09T23:36:50.662Z,0.50
2022-09-09T23:39:18.572Z,0.73
2022-09-09T23:41:56.853Z,0.35
2022-09-09T23:44:25.654Z,0.60
2022-09-09T23:47:12.212Z,0.40
2022-09-09T23:49:40.306Z,0.52
2022-09-09T23:52:08.789Z,0.65
2022-09-09T23:54:36.757Z,0.45
2022-09-09T23:57:13.584Z,0.70
2022-09-09T23:59:41.533Z,0.63
